createdAt,value
2023-05-05T00:00:22.029Z,36.67
2023-05-05T00:02:50.591Z,36.33
2023-05-05T00:05:19.321Z,36.00
2023-05-05T00:07:47.926Z,35.67
2023-05-05T00:10:16.824Z,36.67
2023-05-05T00:12:45.461Z,30.00
2023-05-05T00:15:14.218Z,32.33
2023-05-05T00:17:43.048Z,37.33
2023-05-05T00:20:11.320Z,36.00
2023-05-05T00:22:39.106Z,37.00
2023-05-05T00:25:07.473Z,34.67
2023-05-05T00:27:36.503Z,37.33
2023-05-05T00:30:06.224Z,39.67
2023-05-05T00:32:35.125Z,37.33
2023-05-05T00:35:03.946Z,39.33
2023-05-05T00:37:33.119Z,36.67
2023-05-05T00:40:01.898Z,35.67
2023-05-05T00:42:45.913Z,36.00
2023-05-05T00:45:15.821Z,38.67
2023-05-05T00:47:57.300Z,36.67
2023-05-05T00:50:29.461Z,38.00
2023-05-05T00:53:01.688Z,39.00
2023-05-05T00:55:30.898Z,37.67
2023-05-05T00:58:01.547Z,40.00
2023-05-05T01:00:30.506Z,36.00
2023-05-05T01:02:59.837Z,39.00
2023-05-05T01:05:38.062Z,36.00
2023-05-05T01:08:14.875Z,35.33
2023-05-05T01:10:52.509Z,37.33
2023-05-05T01:13:42.919Z,35.67
2023-05-05T01:16:19.306Z,38.67
2023-05-05T01:19:37.420Z,36.00
2023-05-05T01:22:09.269Z,39.00
2023-05-05T01:24:56.021Z,37.67
2023-05-05T01:27:38.459Z,35.67
2023-05-05T01:30:44.458Z,37.00
2023-05-05T01:33:19.972Z,39.67
2023-05-05T01:35:55.526Z,39.00
2023-05-05T01:38:36.337Z,36.33
2023-05-05T01:41:30.409Z,39.00
2023-05-05T01:44:03.432Z,39.00
2023-05-05T01:46:34.429Z,37.33
2023-05-05T01:49:05.918Z,40.00
2023-05-05T01:51:36.288Z,39.00
2023-05-05T01:54:08.268Z,36.33
2023-05-05T01:56:40.221Z,39.33
2023-05-05T01:59:10.399Z,40.67
2023-05-05T02:01:44.918Z,41.33
2023-05-05T02:04:15.131Z,39.33
2023-05-05T02:06:46.170Z,39.33
2023-05-05T02:09:16.211Z,41.33
2023-05-05T02:11:44.179Z,40.00
2023-05-05T02:14:12.932Z,40.67
2023-05-05T02:16:42.900Z,40.67
2023-05-05T02:19:14.485Z,41.00
2023-05-05T02:21:43.244Z,39.67
2023-05-05T02:24:12.222Z,39.33
2023-05-05T02:26:44.070Z,37.33
2023-05-05T02:29:19.084Z,41.00
2023-05-05T02:31:55.606Z,42.33
2023-05-05T02:34:26.803Z,40.00
2023-05-05T02:37:00.224Z,41.00
2023-05-05T02:39:37.247Z,41.00
2023-05-05T02:42:07.889Z,38.00
2023-05-05T02:44:42.184Z,41.00
2023-05-05T02:47:10.964Z,39.33
2023-05-05T02:49:39.579Z,40.33
2023-05-05T02:52:07.445Z,41.00
2023-05-05T02:54:36.505Z,42.00
2023-05-05T02:57:05.181Z,40.00
2023-05-05T03:00:06.450Z,40.67
2023-05-05T03:02:44.957Z,40.67
2023-05-05T03:05:19.866Z,40.00
2023-05-05T03:08:09.962Z,42.67
2023-05-05T03:10:56.794Z,37.00
2023-05-05T03:13:28.569Z,39.00
2023-05-05T03:15:59.085Z,47.00
2023-05-05T03:18:29.202Z,41.67
2023-05-05T03:20:59.263Z,39.33
2023-05-05T03:23:27.241Z,42.33
2023-05-05T03:25:55.930Z,40.00
2023-05-05T03:28:24.596Z,41.00
2023-05-05T03:30:54.400Z,39.00
2023-05-05T03:33:23.081Z,42.00
2023-05-05T03:35:50.953Z,43.00
2023-05-05T03:38:19.629Z,41.00
2023-05-05T03:40:48.449Z,40.67
2023-05-05T03:43:17.102Z,43.67
2023-05-05T03:45:45.607Z,48.00
2023-05-05T03:48:14.479Z,40.00
2023-05-05T03:50:45.697Z,40.33
2023-05-05T03:53:14.354Z,42.33
2023-05-05T03:55:42.173Z,41.67
2023-05-05T03:58:11.234Z,43.33
2023-05-05T04:00:39.868Z,42.33
2023-05-05T04:03:08.658Z,45.00
2023-05-05T04:05:37.232Z,44.50
2023-05-05T04:08:05.960Z,41.00
2023-05-05T04:10:34.890Z,44.00
2023-05-05T04:13:04.210Z,43.00
2023-05-05T04:15:32.930Z,47.67
2023-05-05T04:18:01.529Z,41.67
2023-05-05T04:20:29.274Z,43.50
2023-05-05T04:22:57.987Z,44.00
2023-05-05T04:25:27.225Z,40.67
2023-05-05T04:27:56.108Z,40.67
2023-05-05T04:30:23.048Z,32.50
2023-05-05T04:32:51.829Z,39.67
2023-05-05T04:35:20.995Z,42.33
2023-05-05T04:37:49.904Z,39.33
2023-05-05T04:40:18.007Z,37.00
2023-05-05T04:42:46.179Z,40.00
2023-05-05T04:45:13.974Z,38.33
2023-05-05T04:47:42.642Z,37.00
2023-05-05T04:50:11.743Z,38.33
2023-05-05T04:52:40.645Z,44.00
2023-05-05T04:55:10.827Z,44.67
2023-05-05T04:57:39.492Z,45.33
2023-05-05T05:00:10.060Z,39.33
2023-05-05T05:02:38.396Z,42.50
2023-05-05T05:05:07.968Z,37.00
2023-05-05T05:07:35.870Z,41.00
2023-05-05T05:10:03.798Z,47.00
2023-05-05T05:12:32.455Z,41.67
2023-05-05T05:15:00.291Z,41.50
2023-05-05T05:17:30.577Z,40.67
2023-05-05T05:20:01.795Z,41.67
2023-05-05T05:22:31.017Z,42.33
2023-05-05T05:24:59.766Z,44.00
2023-05-05T05:27:28.341Z,41.33
2023-05-05T05:29:56.914Z,34.67
2023-05-05T05:32:25.498Z,40.00
2023-05-05T05:34:54.068Z,40.00
2023-05-05T05:37:21.903Z,39.33
2023-05-05T05:39:53.531Z,39.00
2023-05-05T05:42:22.206Z,39.33
2023-05-05T05:44:50.866Z,36.00
2023-05-05T05:47:19.699Z,40.00
2023-05-05T05:49:47.509Z,44.00
2023-05-05T05:52:15.257Z,40.67
2023-05-05T05:54:43.816Z,41.67
2023-05-05T05:57:11.661Z,41.67
2023-05-05T05:59:40.352Z,45.33
2023-05-05T06:02:09.789Z,36.67
2023-05-05T06:04:38.638Z,38.67
2023-05-05T06:07:07.591Z,43.00
2023-05-05T06:09:35.399Z,41.00
2023-05-05T06:12:03.924Z,43.50
2023-05-05T06:14:32.187Z,41.67
2023-05-05T06:17:00.808Z,38.00
2023-05-05T06:19:29.804Z,40.00
2023-05-05T06:21:58.619Z,41.00
2023-05-05T06:24:27.229Z,38.33
2023-05-05T06:26:55.820Z,39.00
2023-05-05T06:29:24.452Z,40.00
2023-05-05T06:31:53.208Z,37.67
2023-05-05T06:34:21.220Z,39.00
2023-05-05T06:36:49.886Z,35.67
2023-05-05T06:39:17.808Z,35.67
2023-05-05T06:41:46.534Z,28.00
2023-05-05T06:44:15.041Z,35.67
2023-05-05T06:46:43.921Z,34.67
2023-05-05T06:49:14.007Z,31.67
2023-05-05T06:51:42.825Z,30.67
2023-05-05T06:54:11.652Z,30.67
2023-05-05T06:56:40.280Z,26.33
2023-05-05T06:59:08.905Z,31.00
2023-05-05T07:01:37.561Z,32.67
2023-05-05T07:04:06.412Z,27.50
2023-05-05T07:06:35.245Z,28.67
2023-05-05T07:09:04.533Z,27.67
2023-05-05T07:11:33.054Z,28.67
2023-05-05T07:14:00.874Z,26.00
2023-05-05T07:16:28.753Z,26.50
2023-05-05T07:18:56.910Z,27.50
2023-05-05T07:21:24.829Z,21.00
2023-05-05T07:23:53.597Z,22.33
2023-05-05T07:26:22.277Z,29.33
2023-05-05T07:28:52.168Z,29.67
2023-05-05T07:31:20.151Z,28.67
2023-05-05T07:33:48.235Z,32.67
2023-05-05T07:36:18.259Z,29.33
2023-05-05T07:38:46.979Z,32.67
2023-05-05T07:41:14.767Z,33.33
2023-05-05T07:43:44.659Z,30.67
2023-05-05T07:46:14.041Z,35.33
2023-05-05T07:48:42.712Z,34.00
2023-05-05T07:51:11.512Z,29.33
2023-05-05T07:53:39.478Z,33.00
2023-05-05T07:56:09.070Z,27.33
2023-05-05T07:58:37.058Z,28.33
2023-05-05T08:01:06.674Z,31.33
2023-05-05T08:03:34.534Z,33.00
2023-05-05T08:06:09.636Z,32.33
2023-05-05T08:08:38.305Z,29.67
2023-05-05T08:11:06.977Z,32.33
2023-05-05T08:13:35.684Z,26.33
2023-05-05T08:16:04.541Z,30.50
2023-05-05T08:18:33.080Z,29.33
2023-05-05T08:21:01.770Z,28.00
2023-05-05T08:23:30.562Z,28.00
2023-05-05T08:25:59.245Z,20.67
2023-05-05T08:28:27.088Z,21.50
2023-05-05T08:30:55.949Z,29.33
2023-05-05T08:33:23.637Z,29.00
2023-05-05T08:35:52.183Z,26.67
2023-05-05T08:38:21.026Z,27.00
2023-05-05T08:40:52.120Z,25.67
2023-05-05T08:43:22.956Z,32.00
2023-05-05T08:45:53.908Z,29.33
2023-05-05T08:48:27.809Z,24.33
2023-05-05T08:51:00.341Z,23.00
2023-05-05T08:53:45.972Z,27.50
2023-05-05T08:56:15.536Z,25.33
2023-05-05T08:58:46.614Z,22.00
2023-05-05T09:01:18.463Z,24.00
2023-05-05T09:03:47.187Z,22.67
2023-05-05T09:06:16.119Z,23.33
2023-05-05T09:08:44.296Z,24.67
2023-05-05T09:11:12.892Z,24.33
2023-05-05T09:13:42.033Z,22.67
2023-05-05T09:16:10.801Z,21.33
2023-05-05T09:18:39.121Z,21.33
2023-05-05T09:21:24.976Z,19.50
2023-05-05T09:24:09.149Z,23.33
2023-05-05T09:26:38.850Z,23.00
2023-05-05T09:29:06.865Z,19.00
2023-05-05T09:31:36.435Z,22.50
2023-05-05T09:34:16.535Z,17.67
2023-05-05T09:36:50.177Z,27.67
2023-05-05T09:39:20.682Z,25.00
2023-05-05T09:41:49.245Z,22.67
2023-05-05T09:44:34.862Z,23.67
2023-05-05T09:47:07.225Z,25.00
2023-05-05T09:49:40.875Z,23.33
2023-05-05T09:52:14.848Z,16.00
2023-05-05T09:54:44.070Z,24.67
2023-05-05T09:57:33.540Z,23.67
2023-05-05T10:00:04.532Z,17.67
2023-05-05T10:02:35.482Z,21.33
2023-05-05T10:05:16.130Z,18.33
2023-05-05T10:07:45.996Z,21.00
2023-05-05T10:10:17.310Z,22.00
2023-05-05T10:12:47.844Z,19.67
2023-05-05T10:15:16.919Z,19.00
2023-05-05T10:20:22.874Z,20.33
2023-05-05T10:22:53.464Z,21.00
2023-05-05T10:25:35.276Z,19.00
2023-05-05T10:28:08.599Z,17.33
2023-05-05T10:30:43.573Z,25.33
2023-05-05T10:33:49.814Z,21.00
2023-05-05T10:36:20.534Z,20.33
2023-05-05T10:38:49.581Z,15.67
2023-05-05T10:41:20.739Z,17.00
2023-05-05T10:43:49.507Z,16.00
2023-05-05T10:46:17.952Z,15.67
2023-05-05T10:49:05.811Z,15.00
2023-05-05T10:51:43.728Z,17.33
2023-05-05T10:54:21.340Z,18.67
2023-05-05T10:56:50.040Z,15.00
2023-05-05T10:59:36.696Z,17.00
2023-05-05T11:02:24.305Z,19.67
2023-05-05T11:05:15.392Z,19.50
2023-05-05T11:07:44.647Z,22.00
2023-05-05T11:10:14.961Z,15.67
2023-05-05T11:12:52.295Z,17.00
2023-05-05T11:15:30.379Z,20.67
2023-05-05T11:18:00.255Z,17.33
2023-05-05T11:20:37.197Z,21.00
2023-05-05T11:23:05.875Z,17.33
2023-05-05T11:25:37.395Z,17.00
2023-05-05T11:28:18.955Z,17.00
2023-05-05T11:30:56.410Z,18.50
2023-05-05T11:33:37.250Z,14.67
2023-05-05T11:36:08.629Z,14.33
2023-05-05T11:38:55.963Z,19.00
2023-05-05T11:41:33.626Z,17.67
2023-05-05T11:44:16.377Z,15.00
2023-05-05T11:46:50.936Z,18.67
2023-05-05T11:49:49.678Z,17.33
2023-05-05T11:52:17.392Z,14.67
2023-05-05T11:54:48.147Z,9.67
2023-05-05T11:57:18.408Z,16.00
2023-05-05T11:59:53.315Z,18.33
2023-05-05T12:02:22.861Z,15.00
2023-05-05T12:04:51.034Z,16.67
2023-05-05T12:07:20.895Z,14.33
2023-05-05T12:09:50.128Z,12.00
2023-05-05T12:12:18.865Z,16.33
2023-05-05T12:14:53.126Z,13.00
2023-05-05T12:17:22.083Z,12.33
2023-05-05T12:19:54.642Z,10.33
2023-05-05T12:22:26.596Z,13.00
2023-05-05T12:25:03.380Z,11.00
2023-05-05T12:27:31.171Z,11.00
2023-05-05T12:30:13.248Z,10.33
2023-05-05T12:32:40.859Z,14.00
2023-05-05T12:35:10.050Z,14.67
2023-05-05T12:37:39.186Z,13.33
2023-05-05T12:40:44.200Z,13.00
2023-05-05T12:43:35.209Z,16.00
2023-05-05T12:46:04.722Z,16.33
2023-05-05T12:48:33.102Z,10.67
2023-05-05T12:51:31.429Z,14.00
2023-05-05T12:54:11.696Z,14.00
2023-05-05T12:56:45.816Z,13.00
2023-05-05T12:59:22.549Z,13.33
2023-05-05T13:01:54.363Z,15.00
2023-05-05T13:04:27.180Z,12.00
2023-05-05T13:07:12.971Z,14.33
2023-05-05T13:09:41.454Z,14.67
2023-05-05T13:12:12.126Z,14.00
2023-05-05T13:14:41.041Z,10.67
2023-05-05T13:17:09.504Z,15.00
2023-05-05T13:19:42.051Z,11.67
2023-05-05T13:22:10.226Z,13.00
2023-05-05T13:24:49.939Z,11.00
2023-05-05T13:27:20.540Z,17.00
2023-05-05T13:29:48.572Z,12.67
2023-05-05T13:32:16.300Z,13.33
2023-05-05T13:34:44.348Z,12.33
2023-05-05T13:37:12.028Z,15.00
2023-05-05T13:39:39.671Z,14.00
2023-05-05T13:42:07.612Z,16.00
2023-05-05T13:44:35.863Z,11.33
2023-05-05T13:47:03.826Z,12.00
2023-05-05T13:49:32.655Z,19.33
2023-05-05T13:52:00.221Z,16.00
2023-05-05T13:54:28.190Z,8.67
2023-05-05T13:56:56.013Z,13.33
2023-05-05T13:59:23.672Z,13.00
2023-05-05T14:01:51.475Z,10.00
2023-05-05T14:04:19.414Z,8.67
2023-05-05T14:06:47.110Z,11.33
2023-05-05T14:09:14.704Z,11.00
2023-05-05T14:11:42.711Z,11.00
2023-05-05T14:14:10.761Z,11.67
2023-05-05T14:16:38.487Z,9.67
2023-05-05T14:19:06.531Z,11.33
2023-05-05T14:21:34.439Z,11.33
2023-05-05T14:24:05.047Z,11.33
2023-05-05T14:26:32.906Z,11.33
2023-05-05T14:29:00.680Z,10.67
2023-05-05T14:31:28.755Z,12.00
2023-05-05T14:33:59.528Z,13.33
2023-05-05T14:36:27.043Z,13.67
2023-05-05T14:38:54.661Z,12.00
2023-05-05T14:41:22.773Z,9.33
2023-05-05T14:43:50.703Z,12.67
2023-05-05T14:46:18.948Z,11.00
2023-05-05T14:48:47.471Z,9.00
2023-05-05T14:51:16.083Z,9.00
2023-05-05T14:53:44.053Z,13.00
2023-05-05T14:56:11.855Z,12.00
2023-05-05T14:58:39.608Z,10.67
2023-05-05T15:01:07.391Z,12.00
2023-05-05T15:03:35.174Z,12.00
2023-05-05T15:06:02.729Z,11.00
2023-05-05T15:08:30.524Z,12.00
2023-05-05T15:10:58.143Z,12.00
2023-05-05T15:13:26.377Z,11.33
2023-05-05T15:15:53.983Z,11.00
2023-05-05T15:18:21.563Z,13.00
2023-05-05T15:20:49.254Z,10.67
2023-05-05T15:23:17.208Z,11.33
2023-05-05T15:25:45.542Z,13.00
2023-05-05T15:28:14.611Z,12.33
2023-05-05T15:30:42.256Z,12.67
2023-05-05T15:33:11.229Z,11.00
2023-05-05T15:35:40.075Z,10.33
2023-05-05T15:38:07.944Z,9.00
2023-05-05T15:40:35.580Z,9.00
2023-05-05T15:43:03.277Z,11.67
2023-05-05T15:45:30.905Z,10.67
2023-05-05T15:47:58.533Z,11.67
2023-05-05T15:50:26.216Z,11.00
2023-05-05T15:52:57.051Z,11.00
2023-05-05T15:55:24.808Z,11.00
2023-05-05T15:57:53.091Z,14.00
2023-05-05T16:00:21.157Z,12.00
2023-05-05T16:02:49.036Z,14.00
2023-05-05T16:05:16.675Z,9.00
2023-05-05T16:07:44.213Z,13.00
2023-05-05T16:10:14.382Z,11.00
2023-05-05T16:12:41.867Z,11.00
2023-05-05T16:15:10.516Z,9.67
2023-05-05T16:17:40.237Z,11.50
2023-05-05T16:20:10.530Z,10.67
2023-05-05T16:22:38.183Z,12.00
2023-05-05T16:25:06.550Z,10.00
2023-05-05T16:27:34.481Z,13.00
2023-05-05T16:30:02.407Z,12.00
2023-05-05T16:32:30.008Z,13.00
2023-05-05T16:34:57.762Z,11.33
2023-05-05T16:37:25.525Z,13.33
2023-05-05T16:39:53.115Z,11.33
2023-05-05T16:42:21.045Z,13.33
2023-05-05T16:44:49.051Z,11.67
2023-05-05T16:47:16.720Z,12.00
2023-05-05T16:49:44.513Z,10.67
2023-05-05T16:52:12.186Z,12.00
2023-05-05T16:54:39.972Z,13.00
2023-05-05T16:57:07.815Z,15.00
2023-05-05T16:59:36.185Z,12.00
2023-05-05T17:02:04.304Z,12.00
2023-05-05T17:04:33.791Z,10.50
2023-05-05T17:07:01.383Z,10.00
2023-05-05T17:09:28.816Z,8.33
2023-05-05T17:11:56.717Z,15.33
2023-05-05T17:14:27.404Z,10.00
2023-05-05T17:16:55.123Z,11.33
2023-05-05T17:19:22.698Z,11.67
2023-05-05T17:21:50.380Z,13.00
2023-05-05T17:24:17.915Z,11.00
2023-05-05T17:26:45.943Z,11.33
2023-05-05T17:29:14.286Z,11.00
2023-05-05T17:31:43.147Z,9.80
2023-05-05T17:34:10.796Z,12.00
2023-05-05T17:36:38.736Z,10.67
2023-05-05T17:39:06.566Z,13.00
2023-05-05T17:41:34.325Z,10.00
2023-05-05T17:44:01.772Z,10.33
2023-05-05T17:46:29.356Z,12.67
2023-05-05T17:48:57.067Z,13.33
2023-05-05T17:51:24.638Z,10.00
2023-05-05T17:53:52.129Z,9.67
2023-05-05T17:56:19.833Z,12.00
2023-05-05T17:58:48.332Z,14.00
2023-05-05T18:01:26.693Z,12.33
2023-05-05T18:03:54.908Z,12.00
2023-05-05T18:06:22.725Z,13.00
2023-05-05T18:08:50.488Z,13.50
2023-05-05T18:11:21.455Z,18.00
2023-05-05T18:13:49.201Z,18.00
2023-05-05T18:16:16.917Z,15.00
2023-05-05T18:18:44.708Z,17.50
2023-05-05T18:21:12.610Z,14.33
2023-05-05T18:23:40.640Z,15.00
2023-05-05T18:26:08.913Z,13.67
2023-05-05T18:28:37.696Z,17.00
2023-05-05T18:31:06.681Z,17.00
2023-05-05T18:33:35.373Z,18.00
2023-05-05T18:36:04.078Z,16.50
2023-05-05T18:38:32.905Z,17.67
2023-05-05T18:41:00.674Z,16.50
2023-05-05T18:43:29.377Z,20.00
2023-05-05T18:45:57.229Z,17.00
2023-05-05T18:48:24.989Z,20.00
2023-05-05T18:50:52.716Z,19.33
2023-05-05T18:53:21.349Z,20.67
2023-05-05T18:55:50.089Z,18.67
2023-05-05T18:58:17.941Z,18.67
2023-05-05T19:00:45.539Z,19.00
2023-05-05T19:03:13.360Z,21.00
2023-05-05T19:05:42.225Z,23.00
2023-05-05T19:08:10.172Z,20.33
2023-05-05T19:10:38.867Z,21.00
2023-05-05T19:13:06.900Z,20.67
2023-05-05T19:15:35.657Z,23.67
2023-05-05T19:18:05.751Z,19.50
2023-05-05T19:20:34.839Z,22.33
2023-05-05T19:23:04.644Z,22.00
2023-05-05T19:25:33.210Z,20.33
2023-05-05T19:28:01.221Z,19.00
2023-05-05T19:30:29.102Z,22.33
2023-05-05T19:32:57.906Z,21.00
2023-05-05T19:35:27.061Z,25.00
2023-05-05T19:37:56.281Z,27.25
2023-05-05T19:40:24.837Z,29.67
2023-05-05T19:42:53.388Z,29.33
2023-05-05T19:45:22.055Z,26.33
2023-05-05T19:47:50.890Z,27.33
2023-05-05T19:50:19.168Z,29.67
2023-05-05T19:52:47.814Z,32.25
2023-05-05T19:55:16.464Z,31.00
2023-05-05T19:57:44.498Z,24.00
2023-05-05T20:00:13.356Z,31.00
2023-05-05T20:02:41.718Z,31.33
2023-05-05T20:05:11.649Z,28.00
2023-05-05T20:07:40.360Z,30.00
2023-05-05T20:10:09.656Z,28.67
2023-05-05T20:12:38.913Z,32.75
2023-05-05T20:15:08.556Z,31.00
2023-05-05T20:17:37.382Z,31.25
2023-05-05T20:20:06.726Z,31.00
2023-05-05T20:22:35.243Z,33.25
2023-05-05T20:25:04.273Z,34.33
2023-05-05T20:27:32.983Z,32.67
2023-05-05T20:30:04.115Z,36.67
2023-05-05T20:32:32.141Z,30.00
2023-05-05T20:35:00.974Z,36.00
2023-05-05T20:37:29.562Z,32.67
2023-05-05T20:39:58.343Z,33.67
2023-05-05T20:42:27.994Z,33.67
2023-05-05T20:44:56.902Z,34.75
2023-05-05T20:47:24.947Z,31.00
2023-05-05T20:49:52.850Z,30.67
2023-05-05T20:52:21.546Z,34.25
2023-05-05T20:54:50.292Z,35.33
2023-05-05T20:57:18.100Z,32.33
2023-05-05T20:59:46.749Z,33.50
2023-05-05T21:02:15.377Z,32.75
2023-05-05T21:04:44.037Z,34.00
2023-05-05T21:07:12.785Z,33.75
2023-05-05T21:09:40.575Z,31.67
2023-05-05T21:12:08.445Z,31.67
2023-05-05T21:14:45.462Z,34.00
2023-05-05T21:17:13.220Z,33.00
2023-05-05T21:19:41.918Z,32.33
2023-05-05T21:22:09.681Z,33.33
2023-05-05T21:24:39.079Z,33.00
2023-05-05T21:27:06.871Z,32.00
2023-05-05T21:29:38.705Z,31.67
2023-05-05T21:32:08.908Z,37.33
2023-05-05T21:34:36.415Z,34.00
2023-05-05T21:37:05.315Z,34.00
2023-05-05T21:39:35.279Z,38.50
2023-05-05T21:42:04.013Z,35.75
2023-05-05T21:44:33.156Z,35.00
2023-05-05T21:47:01.800Z,33.25
2023-05-05T21:49:34.597Z,33.67
2023-05-05T21:52:03.393Z,28.67
2023-05-05T21:54:31.366Z,34.33
2023-05-05T21:57:02.943Z,34.75
2023-05-05T21:59:30.950Z,33.67
2023-05-05T22:02:05.398Z,31.67
2023-05-05T22:07:51.174Z,32.67
2023-05-05T22:10:19.031Z,31.00
2023-05-05T22:12:48.149Z,30.67
2023-05-05T22:15:19.386Z,27.00
2023-05-05T22:17:47.979Z,31.67
2023-05-05T22:20:16.836Z,32.00
2023-05-05T22:22:46.154Z,31.00
2023-05-05T22:25:13.995Z,28.67
2023-05-05T22:27:43.103Z,32.33
2023-05-05T22:30:11.669Z,31.67
2023-05-05T22:32:43.632Z,30.00
2023-05-05T22:35:11.801Z,32.33
2023-05-05T22:37:41.232Z,32.33
2023-05-05T22:40:10.234Z,33.67
2023-05-05T22:42:38.493Z,33.00
2023-05-05T22:45:08.742Z,33.00
2023-05-05T22:47:37.108Z,33.33
2023-05-05T22:50:05.628Z,35.33
2023-05-05T22:52:34.316Z,36.00
2023-05-05T22:55:03.060Z,36.00
2023-05-05T22:57:31.668Z,37.67
2023-05-05T23:00:00.393Z,40.67
2023-05-05T23:02:29.118Z,40.67
2023-05-05T23:04:57.713Z,35.25
2023-05-05T23:07:25.772Z,36.33
2023-05-05T23:09:54.439Z,37.00
2023-05-05T23:12:23.171Z,34.67
2023-05-05T23:14:52.619Z,33.00
2023-05-05T23:17:24.251Z,35.33
2023-05-05T23:19:52.232Z,33.00
2023-05-05T23:22:24.184Z,36.33
2023-05-05T23:24:53.272Z,36.00
2023-05-05T23:27:21.039Z,33.33
2023-05-05T23:29:49.888Z,37.50
2023-05-05T23:32:18.460Z,33.67
2023-05-05T23:34:46.222Z,33.67
2023-05-05T23:37:16.860Z,35.29
2023-05-05T23:39:45.456Z,36.33
2023-05-05T23:42:14.997Z,34.00
2023-05-05T23:44:42.942Z,36.00
2023-05-05T23:47:11.519Z,33.67
2023-05-05T23:49:39.559Z,32.67
2023-05-05T23:52:08.166Z,35.00
2023-05-05T23:54:35.976Z,35.67
2023-05-05T23:57:04.522Z,37.75
2023-05-05T23:59:32.318Z,36.67
